createdAt,value
2019-05-23T00:03:29.832Z,71.21
2019-05-23T00:08:34.162Z,71.07
2019-05-23T00:13:58.193Z,71.02
2019-05-23T00:19:04.955Z,71.11
2019-05-23T00:24:10.887Z,71.30
2019-05-23T00:29:16.822Z,71.35
2019-05-23T00:34:22.218Z,71.10
2019-05-23T00:39:27.275Z,71.08
2019-05-23T00:44:32.013Z,71.30
2019-05-23T00:49:36.747Z,71.10
2019-05-23T00:54:41.016Z,71.49
2019-05-23T00:59:46.326Z,71.42
2019-05-23T01:04:51.728Z,71.45
2019-05-23T01:09:56.575Z,71.57
2019-05-23T01:15:01.638Z,71.65
2019-05-23T01:20:09.611Z,71.88
2019-05-23T01:25:15.620Z,71.72
2019-05-23T01:30:23.828Z,72.23
2019-05-23T01:35:29.537Z,72.34
2019-05-23T01:40:33.787Z,71.93
2019-05-23T01:45:40.335Z,72.71
2019-05-23T01:50:45.340Z,72.58
2019-05-23T01:55:50.235Z,72.93
2019-05-23T02:00:54.839Z,72.66
2019-05-23T02:05:59.551Z,73.10
2019-05-23T02:11:04.277Z,73.24
2019-05-23T02:16:09.624Z,73.38
2019-05-23T02:21:16.054Z,73.96
2019-05-23T02:26:23.700Z,73.97
2019-05-23T02:31:28.017Z,74.75
2019-05-23T02:36:33.906Z,75.02
2019-05-23T02:41:43.358Z,75.22
2019-05-23T02:47:16.029Z,75.18
2019-05-23T02:52:49.634Z,74.96
2019-05-23T02:57:55.810Z,75.04
2019-05-23T03:03:06.574Z,74.54
2019-05-23T03:08:12.878Z,75.21
2019-05-23T03:13:18.350Z,74.41
2019-05-23T03:18:24.059Z,74.78
2019-05-23T03:23:29.149Z,75.51
2019-05-23T03:28:40.271Z,75.38
2019-05-23T03:33:46.150Z,74.95
2019-05-23T03:38:51.420Z,75.70
2019-05-23T03:43:57.067Z,76.20
2019-05-23T03:49:02.368Z,76.69
2019-05-23T03:54:06.827Z,76.90
2019-05-23T03:59:13.123Z,76.37
2019-05-23T04:04:17.744Z,76.48
2019-05-23T04:09:21.982Z,77.14
2019-05-23T04:14:26.302Z,77.30
2019-05-23T04:19:30.519Z,76.69
2019-05-23T04:24:34.759Z,77.60
2019-05-23T04:29:39.172Z,77.42
2019-05-23T04:34:43.397Z,78.16
2019-05-23T04:39:47.926Z,77.89
2019-05-23T04:44:52.240Z,78.04
2019-05-23T04:49:56.576Z,77.80
2019-05-23T04:55:01.381Z,78.09
2019-05-23T05:00:08.031Z,77.71
2019-05-23T05:05:13.038Z,78.12
2019-05-23T05:10:20.450Z,77.23
2019-05-23T05:15:24.863Z,75.68
2019-05-23T05:20:29.379Z,75.29
2019-05-23T05:25:33.852Z,74.12
2019-05-23T05:30:38.455Z,74.58
2019-05-23T05:35:43.597Z,73.80
2019-05-23T05:40:47.847Z,73.03
2019-05-23T05:45:52.635Z,72.09
2019-05-23T05:50:56.875Z,71.73
2019-05-23T05:56:01.197Z,71.16
2019-05-23T06:01:09.005Z,70.38
2019-05-23T06:06:36.555Z,69.20
2019-05-23T06:11:41.349Z,67.84
2019-05-23T06:16:46.190Z,67.22
2019-05-23T06:21:50.577Z,66.73
2019-05-23T06:26:55.364Z,65.63
2019-05-23T06:31:59.782Z,65.03
2019-05-23T06:37:04.714Z,65.70
2019-05-23T06:42:08.954Z,64.91
2019-05-23T06:47:13.474Z,64.90
2019-05-23T06:52:17.833Z,64.13
2019-05-23T06:57:22.700Z,64.47
2019-05-23T07:02:31.496Z,64.07
2019-05-23T07:07:33.955Z,63.02
2019-05-23T07:12:38.324Z,62.25
2019-05-23T07:17:42.637Z,61.26
2019-05-23T07:22:46.930Z,61.97
2019-05-23T07:27:51.819Z,60.67
2019-05-23T07:32:57.071Z,59.91
2019-05-23T07:38:01.314Z,59.43
2019-05-23T07:43:07.846Z,59.16
2019-05-23T07:48:12.757Z,60.46
2019-05-23T07:53:23.688Z,59.48
2019-05-23T07:58:27.902Z,57.82
2019-05-23T08:03:34.475Z,61.21
2019-05-23T08:08:38.706Z,53.77
2019-05-23T08:13:42.938Z,54.07
2019-05-23T08:18:47.184Z,51.45
2019-05-23T08:23:51.619Z,51.65
2019-05-23T08:29:22.153Z,52.38
2019-05-23T08:34:03.173Z,52.77
2019-05-23T08:39:08.721Z,52.35
2019-05-23T08:44:13.785Z,52.30
2019-05-23T08:49:18.731Z,50.06
2019-05-23T08:54:22.986Z,51.13
2019-05-23T08:59:27.335Z,51.10
2019-05-23T09:04:32.236Z,51.11
2019-05-23T09:09:36.636Z,49.97
2019-05-23T09:14:40.961Z,50.34
2019-05-23T09:19:45.197Z,49.08
2019-05-23T09:24:49.474Z,45.37
2019-05-23T09:29:54.128Z,47.01
2019-05-23T09:34:58.464Z,46.75
2019-05-23T09:40:03.308Z,46.56
2019-05-23T09:45:09.145Z,46.56
2019-05-23T09:50:16.587Z,45.82
2019-05-23T09:55:20.788Z,44.67
2019-05-23T10:00:26.131Z,44.87
2019-05-23T10:05:42.504Z,45.00
2019-05-23T10:10:37.175Z,43.32
2019-05-23T10:15:59.345Z,42.23
2019-05-23T10:21:03.958Z,41.78
2019-05-23T10:26:08.544Z,42.38
2019-05-23T10:31:13.276Z,41.26
2019-05-23T10:36:17.512Z,40.54
2019-05-23T10:41:21.792Z,39.93
2019-05-23T10:46:26.441Z,37.73
2019-05-23T10:51:30.711Z,37.52
2019-05-23T10:56:35.037Z,37.31
2019-05-23T11:01:39.681Z,37.92
2019-05-23T11:06:43.988Z,38.97
2019-05-23T11:11:48.327Z,38.77
2019-05-23T11:16:53.204Z,37.06
2019-05-23T11:21:57.776Z,38.33
2019-05-23T11:27:02.284Z,35.60
2019-05-23T11:32:08.694Z,33.68
2019-05-23T11:37:12.939Z,33.68
2019-05-23T11:42:17.188Z,31.92
2019-05-23T11:47:22.193Z,30.98
2019-05-23T11:52:27.106Z,30.80
2019-05-23T11:57:31.528Z,30.98
2019-05-23T12:02:40.028Z,28.26
2019-05-23T12:07:44.726Z,29.16
2019-05-23T12:12:48.957Z,30.96
2019-05-23T12:17:53.674Z,31.92
2019-05-23T12:22:58.209Z,34.30
2019-05-23T12:28:04.201Z,35.14
2019-05-23T12:33:08.549Z,35.67
2019-05-23T12:38:13.011Z,35.41
2019-05-23T12:43:17.340Z,32.85
2019-05-23T12:48:33.406Z,34.09
2019-05-23T12:53:37.638Z,33.33
2019-05-23T12:58:42.861Z,31.32
2019-05-23T13:03:47.252Z,30.07
2019-05-23T13:08:52.330Z,29.19
2019-05-23T13:13:56.547Z,26.67
2019-05-23T13:19:00.745Z,24.49
2019-05-23T13:24:05.094Z,26.62
2019-05-23T13:29:09.773Z,29.64
2019-05-23T13:34:14.170Z,30.74
2019-05-23T13:39:18.975Z,28.89
2019-05-23T13:44:34.039Z,27.81
2019-05-23T13:49:29.508Z,28.82
2019-05-23T13:54:36.691Z,26.38
2019-05-23T13:59:40.399Z,24.48
2019-05-23T14:04:44.888Z,25.14
2019-05-23T14:09:49.288Z,26.44
2019-05-23T14:14:53.530Z,27.54
2019-05-23T14:19:57.906Z,28.08
2019-05-23T14:25:02.537Z,25.19
2019-05-23T14:30:14.480Z,24.79
2019-05-23T14:35:22.467Z,25.13
2019-05-23T14:40:27.156Z,25.17
2019-05-23T14:45:44.441Z,25.08
2019-05-23T14:51:06.643Z,23.08
2019-05-23T14:56:12.516Z,26.55
2019-05-23T15:01:16.795Z,25.87
2019-05-23T15:06:21.277Z,25.60
2019-05-23T15:11:25.491Z,24.61
2019-05-23T15:16:29.676Z,27.39
2019-05-23T15:21:34.178Z,29.36
2019-05-23T15:26:38.500Z,28.21
2019-05-23T15:31:59.115Z,26.47
2019-05-23T15:36:49.164Z,29.24
2019-05-23T15:41:53.384Z,29.51
2019-05-23T15:46:57.655Z,30.06
2019-05-23T15:52:09.699Z,31.21
2019-05-23T15:57:19.428Z,30.91
2019-05-23T16:02:32.259Z,28.87
2019-05-23T16:07:36.503Z,26.33
2019-05-23T16:12:40.778Z,26.09
2019-05-23T16:17:45.277Z,28.27
2019-05-23T16:22:49.468Z,28.85
2019-05-23T16:27:54.223Z,29.93
2019-05-23T16:32:58.457Z,32.36
2019-05-23T16:38:02.660Z,33.23
2019-05-23T16:43:06.894Z,32.55
2019-05-23T16:48:11.092Z,32.80
2019-05-23T16:53:15.361Z,33.00
2019-05-23T16:58:38.549Z,32.34
2019-05-23T17:03:57.467Z,32.80
2019-05-23T17:09:17.503Z,32.96
2019-05-23T17:14:26.840Z,33.79
2019-05-23T17:19:40.396Z,33.67
2019-05-23T17:24:53.018Z,33.75
2019-05-23T17:30:02.069Z,33.66
2019-05-23T17:35:06.429Z,33.91
2019-05-23T17:40:24.207Z,33.63
2019-05-23T17:45:18.298Z,34.22
2019-05-23T17:50:22.738Z,34.23
2019-05-23T17:55:28.245Z,34.57
2019-05-23T18:00:41.240Z,38.53
2019-05-23T18:05:46.182Z,36.79
2019-05-23T18:10:51.740Z,35.87
2019-05-23T18:15:55.951Z,36.14
2019-05-23T18:21:00.467Z,36.58
2019-05-23T18:26:06.085Z,36.73
2019-05-23T18:31:18.794Z,36.07
2019-05-23T18:36:23.286Z,37.07
2019-05-23T18:41:28.745Z,36.38
2019-05-23T18:46:38.023Z,37.98
2019-05-23T18:51:42.410Z,38.28
2019-05-23T18:56:47.934Z,37.71
2019-05-23T19:01:52.295Z,38.64
2019-05-23T19:06:57.156Z,39.32
2019-05-23T19:12:03.156Z,40.61
2019-05-23T19:17:07.611Z,41.03
2019-05-23T19:22:12.370Z,40.77
2019-05-23T19:27:18.317Z,41.69
2019-05-23T19:32:23.128Z,42.34
2019-05-23T19:37:27.359Z,42.20
2019-05-23T19:42:32.688Z,42.62
2019-05-23T19:47:36.964Z,42.62
2019-05-23T19:52:41.572Z,43.26
2019-05-23T19:57:45.873Z,43.67
2019-05-23T20:02:55.122Z,44.35
2019-05-23T20:07:59.876Z,44.97
2019-05-23T20:13:04.271Z,45.14
2019-05-23T20:18:10.802Z,45.63
2019-05-23T20:23:15.958Z,46.23
2019-05-23T20:28:22.343Z,46.46
2019-05-23T20:33:26.676Z,47.51
2019-05-23T20:38:31.415Z,47.46
2019-05-23T20:43:35.626Z,48.08
2019-05-23T20:48:40.222Z,48.72
2019-05-23T20:53:45.692Z,49.04
2019-05-23T20:58:49.896Z,48.73
2019-05-23T21:03:55.635Z,48.60
2019-05-23T21:08:59.857Z,48.88
2019-05-23T21:14:04.372Z,49.04
2019-05-23T21:19:08.577Z,49.75
2019-05-23T21:24:12.804Z,50.26
2019-05-23T21:29:17.054Z,50.46
2019-05-23T21:34:22.305Z,49.94
2019-05-23T21:39:26.846Z,50.34
2019-05-23T21:44:31.222Z,50.48
2019-05-23T21:49:35.408Z,50.94
2019-05-23T21:54:39.614Z,51.59
2019-05-23T21:59:43.807Z,51.68
2019-05-23T22:05:07.029Z,52.21
2019-05-23T22:10:12.007Z,52.75
2019-05-23T22:15:21.271Z,52.91
2019-05-23T22:20:25.710Z,53.55
2019-05-23T22:25:33.543Z,53.43
2019-05-23T22:30:37.989Z,53.97
2019-05-23T22:35:42.499Z,54.20
2019-05-23T22:40:46.699Z,54.59
2019-05-23T22:45:50.909Z,54.97
2019-05-23T22:50:55.109Z,55.22
2019-05-23T22:55:59.294Z,55.90
2019-05-23T23:01:03.665Z,56.19
2019-05-23T23:06:07.963Z,56.95
2019-05-23T23:11:12.456Z,56.83
2019-05-23T23:16:16.666Z,56.74
2019-05-23T23:21:20.881Z,56.68
2019-05-23T23:26:25.079Z,56.81
2019-05-23T23:31:29.567Z,57.35
2019-05-23T23:36:33.755Z,57.55
2019-05-23T23:41:37.961Z,57.60
2019-05-23T23:47:00.095Z,57.75
2019-05-23T23:52:22.128Z,57.70
2019-05-23T23:57:44.152Z,58.17
